Time;durP1;ratioP1;P1;durP2;ratioP2;P2;SDS_P1;SDS_P2;PMS_P1;PMS_P2;Temp;Humidity;BMP_temperature;BMP_pressure;BME280_temperature;BME280_humidity;BME280_pressure;Samples;Min_cycle;Max_cycle;Signal;HPM_P1;HPM_P2
2021/10/08 00:03:34;;;;;;;20.10;18.00;;;22.20;55.40;;;;;;4751412;55;21077;-26
2021/10/08 00:08:35;;;;;;;21.60;18.67;;;22.20;55.50;;;;;;4736500;59;21018;-27
2021/10/08 00:13:37;;;;;;;19.33;17.25;;;22.20;55.40;;;;;;4737384;59;21097;-28
2021/10/08 00:18:38;;;;;;;19.65;16.98;;;22.20;55.40;;;;;;4737484;59;21077;-26
2021/10/08 00:23:38;;;;;;;18.40;16.45;;;22.20;55.40;;;;;;4746316;55;20994;-24
2021/10/08 00:28:39;;;;;;;18.73;16.73;;;22.20;55.40;;;;;;4776157;55;21022;-21
2021/10/08 00:33:40;;;;;;;18.80;16.85;;;22.20;55.40;;;;;;4775569;55;21070;-27
2021/10/08 00:38:42;;;;;;;19.87;17.70;;;22.20;55.40;;;;;;4739826;55;21033;-27
2021/10/08 00:43:43;;;;;;;19.45;17.00;;;22.20;55.30;;;;;;4738280;59;21086;-27
2021/10/08 00:48:50;;;;;;;18.83;16.30;;;22.20;55.30;;;;;;4755108;55;21061;-26
2021/10/08 00:53:51;;;;;;;18.60;16.55;;;22.20;55.40;;;;;;4748671;55;21504;-24
2021/10/08 00:58:52;;;;;;;20.23;16.15;;;22.20;55.30;;;;;;4761553;55;21089;-27
2021/10/08 01:03:55;;;;;;;18.52;16.52;;;22.20;55.30;;;;;;4749149;55;21610;-25
2021/10/08 01:08:56;;;;;;;17.85;15.55;;;22.20;55.30;;;;;;4746775;55;20998;-22
2021/10/08 01:14:01;;;;;;;17.98;16.08;;;22.10;55.30;;;;;;4746276;55;21030;-28
2021/10/08 01:19:02;;;;;;;17.85;15.95;;;22.20;55.30;;;;;;4738600;55;21620;-27
2021/10/08 01:24:04;;;;;;;17.12;15.25;;;22.20;55.30;;;;;;4749343;55;21047;-24
2021/10/08 01:29:10;;;;;;;17.37;15.25;;;22.20;55.30;;;;;;4742487;55;21014;-26
2021/10/08 01:34:10;;;;;;;17.30;15.10;;;22.20;55.30;;;;;;4737533;59;21603;-26
2021/10/08 01:39:11;;;;;;;16.85;15.05;;;22.20;55.30;;;;;;4751581;55;21049;-24
2021/10/08 01:44:12;;;;;;;20.10;15.82;;;22.10;55.30;;;;;;4759699;55;21002;-24
2021/10/08 01:49:13;;;;;;;15.68;13.98;;;22.10;55.20;;;;;;4747569;55;21010;-21
2021/10/08 01:54:14;;;;;;;16.00;14.38;;;22.10;55.30;;;;;;4743931;55;21576;-24
2021/10/08 01:59:15;;;;;;;16.30;14.60;;;22.10;55.30;;;;;;4786511;55;21093;-24
2021/10/08 02:04:17;;;;;;;16.95;14.30;;;22.10;55.20;;;;;;4736716;55;21363;-27
2021/10/08 02:09:18;;;;;;;15.00;13.23;;;22.10;55.20;;;;;;4736808;55;21532;-26
2021/10/08 02:14:19;;;;;;;15.07;13.52;;;22.10;55.20;;;;;;4753848;55;21078;-27
2021/10/08 02:19:20;;;;;;;15.45;13.85;;;22.10;55.20;;;;;;4761802;55;21122;-25
2021/10/08 02:24:20;;;;;;;16.50;13.85;;;22.10;55.20;;;;;;4736677;59;21103;-21
2021/10/08 02:29:21;;;;;;;14.80;13.30;;;22.10;55.20;;;;;;4737340;55;21846;-23
2021/10/08 02:34:22;;;;;;;14.93;13.43;;;22.10;55.40;;;;;;4758627;55;21045;-29
2021/10/08 02:39:23;;;;;;;14.85;13.15;;;22.10;55.20;;;;;;4746709;55;22350;-20
2021/10/08 02:44:24;;;;;;;14.68;13.20;;;22.10;55.20;;;;;;4737357;59;21020;-27
2021/10/08 02:49:25;;;;;;;14.32;12.85;;;22.10;55.20;;;;;;4744698;55;21029;-27
2021/10/08 02:54:26;;;;;;;14.68;12.75;;;22.10;55.20;;;;;;4790025;55;21053;-25
2021/10/08 02:59:28;;;;;;;14.07;12.68;;;22.10;55.20;;;;;;4792913;55;21005;-22
2021/10/08 03:04:29;;;;;;;13.30;11.90;;;22.10;55.20;;;;;;4742994;55;21081;-27
2021/10/08 03:09:30;;;;;;;13.77;12.27;;;22.10;55.20;;;;;;4765459;55;21437;-27
2021/10/08 03:14:30;;;;;;;13.88;12.40;;;22.10;55.20;;;;;;4766149;55;21018;-22
2021/10/08 03:19:31;;;;;;;13.88;12.48;;;22.10;55.30;;;;;;4737423;59;21006;-28
2021/10/08 03:24:32;;;;;;;12.98;11.68;;;22.10;55.20;;;;;;4769837;55;21560;-23
2021/10/08 03:29:33;;;;;;;13.88;11.77;;;22.00;55.20;;;;;;4757881;55;21097;-25
2021/10/08 03:34:34;;;;;;;12.65;11.35;;;22.10;55.20;;;;;;4776674;55;21021;-27
2021/10/08 03:39:39;;;;;;;13.02;11.73;;;22.10;55.20;;;;;;4737345;59;21054;-22
2021/10/08 03:44:43;;;;;;;12.40;11.10;;;22.10;55.20;;;;;;4840201;55;21717;-22
2021/10/08 03:49:44;;;;;;;12.55;11.25;;;22.10;55.20;;;;;;4773534;55;21563;-25
2021/10/08 03:54:45;;;;;;;12.70;10.93;;;22.10;55.20;;;;;;4736532;59;21102;-23
2021/10/08 03:59:46;;;;;;;12.43;11.12;;;22.10;55.20;;;;;;4758756;55;21006;-21
2021/10/08 04:04:47;;;;;;;11.50;10.20;;;22.10;55.20;;;;;;4741415;55;21556;-25
2021/10/08 04:09:48;;;;;;;12.02;10.75;;;22.00;55.20;;;;;;4747110;55;21564;-24
2021/10/08 04:14:49;;;;;;;12.20;11.00;;;22.00;55.20;;;;;;4737665;55;21034;-27
2021/10/08 04:19:49;;;;;;;11.98;10.77;;;22.00;55.20;;;;;;4737464;59;21034;-25
2021/10/08 04:24:51;;;;;;;11.63;10.20;;;22.00;55.20;;;;;;4750084;55;21072;-28
2021/10/08 04:29:52;;;;;;;11.38;10.23;;;22.00;55.20;;;;;;4740545;55;20998;-25
2021/10/08 04:34:53;;;;;;;11.90;10.70;;;22.00;55.20;;;;;;4749275;55;21034;-22
2021/10/08 04:39:54;;;;;;;11.20;10.13;;;22.00;55.30;;;;;;4757205;55;21399;-23
2021/10/08 04:44:55;;;;;;;10.68;9.57;;;22.00;55.30;;;;;;4737881;59;21061;-23
2021/10/08 04:49:56;;;;;;;10.43;9.32;;;22.00;55.30;;;;;;4750870;55;21531;-27
2021/10/08 04:54:56;;;;;;;11.00;9.88;;;22.00;55.30;;;;;;4736306;55;21042;-21
2021/10/08 04:59:57;;;;;;;9.80;8.90;;;22.00;55.40;;;;;;4741444;55;21467;-22
2021/10/08 05:04:58;;;;;;;10.73;9.63;;;22.00;55.40;;;;;;4738849;55;21512;-26
2021/10/08 05:09:59;;;;;;;11.40;10.30;;;22.00;55.40;;;;;;4743146;55;21021;-22
2021/10/08 05:15:00;;;;;;;10.98;9.88;;;22.00;55.40;;;;;;4759739;55;21130;-23
2021/10/08 05:20:00;;;;;;;11.20;10.00;;;22.00;55.40;;;;;;4753546;55;21026;-27
2021/10/08 05:25:01;;;;;;;10.80;9.70;;;22.00;55.40;;;;;;4746823;55;21125;-27
2021/10/08 05:30:04;;;;;;;10.38;9.38;;;22.00;55.40;;;;;;4761699;55;21030;-24
2021/10/08 05:35:06;;;;;;;10.55;9.27;;;22.00;55.40;;;;;;4750798;55;21539;-25
2021/10/08 05:40:08;;;;;;;9.98;8.98;;;22.00;56.00;;;;;;4737330;59;21050;-23
2021/10/08 05:45:09;;;;;;;9.93;8.88;;;22.00;55.40;;;;;;4768652;55;20986;-25
2021/10/08 05:50:10;;;;;;;10.45;9.45;;;22.00;55.40;;;;;;4737242;55;21611;-23
2021/10/08 05:55:11;;;;;;;10.13;9.10;;;22.00;55.40;;;;;;4736403;57;21488;-28
2021/10/08 06:00:12;;;;;;;10.77;9.68;;;22.00;55.40;;;;;;4743949;55;21010;-25
2021/10/08 06:05:13;;;;;;;10.73;9.63;;;22.00;55.40;;;;;;4748513;55;21002;-27
2021/10/08 06:10:13;;;;;;;10.48;9.38;;;22.00;55.40;;;;;;4751000;55;20978;-25
2021/10/08 06:15:14;;;;;;;10.75;9.65;;;21.90;55.30;;;;;;4751133;55;21014;-28
2021/10/08 06:20:15;;;;;;;10.70;9.60;;;21.90;55.30;;;;;;4748891;55;21459;-26
2021/10/08 06:25:16;;;;;;;10.85;9.75;;;21.90;55.30;;;;;;4749989;55;21006;-21
2021/10/08 06:30:17;;;;;;;11.93;10.00;;;21.90;55.40;;;;;;4747957;55;21002;-24
2021/10/08 06:35:18;;;;;;;11.98;10.77;;;21.90;55.30;;;;;;4749231;55;21050;-25
2021/10/08 06:40:19;;;;;;;11.27;10.18;;;21.90;55.30;;;;;;4759047;55;20993;-26
2021/10/08 06:45:21;;;;;;;11.93;10.40;;;21.90;55.30;;;;;;4793756;55;21515;-25
2021/10/08 06:50:22;;;;;;;12.23;10.30;;;21.90;55.30;;;;;;4749876;55;21508;-27
2021/10/08 06:55:23;;;;;;;11.38;10.20;;;21.90;55.30;;;;;;4775284;55;21988;-25
2021/10/08 07:00:24;;;;;;;11.52;10.32;;;21.90;55.30;;;;;;4769222;55;21002;-26
2021/10/08 07:05:25;;;;;;;11.55;10.35;;;21.90;55.40;;;;;;4736704;59;21077;-23
2021/10/08 07:10:26;;;;;;;11.95;10.75;;;21.90;55.30;;;;;;4747178;55;20990;-27
2021/10/08 07:15:27;;;;;;;12.75;11.12;;;21.90;55.50;;;;;;4743912;55;21078;-28
2021/10/08 07:20:29;;;;;;;13.30;11.93;;;21.90;55.80;;;;;;4759187;55;21476;-29
2021/10/08 07:25:31;;;;;;;15.55;13.88;;;22.00;56.20;;;;;;4760020;55;21164;-24
2021/10/08 07:30:32;;;;;;;36.45;28.70;;;22.00;56.10;;;;;;4772926;55;21479;-28
2021/10/08 07:35:33;;;;;;;37.15;29.60;;;22.00;52.90;;;;;;4745780;55;21045;-27
2021/10/08 07:40:33;;;;;;;36.95;29.83;;;22.00;52.90;;;;;;4748460;55;21006;-25
2021/10/08 07:45:34;;;;;;;41.37;31.87;;;22.00;53.20;;;;;;4759030;55;21504;-27
2021/10/08 07:50:35;;;;;;;37.85;30.95;;;22.00;52.60;;;;;;4749826;55;21082;-26
2021/10/08 07:55:36;;;;;;;40.65;33.45;;;22.00;52.10;;;;;;4738061;55;21093;-29
2021/10/08 08:00:37;;;;;;;40.55;32.17;;;22.00;52.70;;;;;;4743750;55;21069;-27
2021/10/08 08:05:38;;;;;;;48.95;34.45;;;21.90;51.80;;;;;;4748621;55;21014;-29
2021/10/08 08:10:40;;;;;;;49.58;36.33;;;22.00;51.90;;;;;;4741527;55;21105;-28
2021/10/08 08:15:41;;;;;;;53.17;39.70;;;21.90;52.00;;;;;;4736769;59;21062;-29
2021/10/08 08:20:42;;;;;;;53.22;42.90;;;21.90;52.00;;;;;;4736584;59;21587;-25
2021/10/08 08:25:43;;;;;;;62.08;44.35;;;21.90;52.20;;;;;;4760344;55;21018;-22
2021/10/08 08:30:44;;;;;;;52.60;41.03;;;21.90;52.20;;;;;;4754877;55;21546;-27
2021/10/08 08:35:45;;;;;;;53.47;38.80;;;21.90;52.10;;;;;;4735629;59;21161;-23
2021/10/08 08:40:46;;;;;;;67.70;47.78;;;21.90;52.20;;;;;;4737840;55;21022;-27
2021/10/08 08:45:47;;;;;;;67.40;47.90;;;21.90;51.90;;;;;;4737861;55;21496;-26
2021/10/08 08:50:49;;;;;;;58.90;44.53;;;21.80;52.00;;;;;;4735833;59;21050;-25
2021/10/08 08:55:51;;;;;;;68.32;51.50;;;21.80;52.10;;;;;;4741540;55;21017;-24
2021/10/08 09:01:00;;;;;;;156.65;118.80;;;21.80;52.10;;;;;;4737244;55;21014;-25
2021/10/08 09:06:01;;;;;;;185.55;140.20;;;21.80;52.50;;;;;;4737864;55;20993;-28
2021/10/08 09:11:05;;;;;;;156.68;122.47;;;21.80;52.30;;;;;;4748278;55;21484;-26
2021/10/08 09:16:06;;;;;;;178.75;143.70;;;21.90;52.60;;;;;;4753140;55;21539;-28
2021/10/08 09:21:13;;;;;;;168.50;131.85;;;21.80;52.60;;;;;;4750918;55;21065;-28
2021/10/08 09:26:23;;;;;;;132.27;106.47;;;21.90;52.70;;;;;;4783727;55;21492;-28
2021/10/08 09:31:38;;;;;;;109.45;86.25;;;21.90;52.70;;;;;;4761038;55;21590;-26
2021/10/08 09:36:40;;;;;;;113.20;79.82;;;21.90;52.60;;;;;;4737135;55;21041;-27
2021/10/08 09:41:42;;;;;;;124.97;82.78;;;21.90;52.60;;;;;;4750931;55;21029;-27
2021/10/08 09:46:43;;;;;;;102.87;78.22;;;21.90;52.70;;;;;;4737333;59;21346;-24
2021/10/08 09:51:45;;;;;;;110.55;82.70;;;21.90;52.80;;;;;;4777562;55;21034;-26
2021/10/08 09:56:46;;;;;;;114.95;84.00;;;21.90;52.80;;;;;;4737600;55;21054;-27
2021/10/08 10:01:46;;;;;;;112.57;86.15;;;21.90;52.90;;;;;;4736869;59;21480;-27
2021/10/08 10:06:50;;;;;;;113.15;87.35;;;21.90;52.90;;;;;;4758853;55;21152;-27
2021/10/08 10:11:51;;;;;;;116.88;89.90;;;21.90;53.00;;;;;;4755695;55;20982;-27
2021/10/08 10:16:52;;;;;;;121.50;94.03;;;21.90;53.10;;;;;;4744745;55;21086;-27
2021/10/08 10:21:55;;;;;;;132.23;102.97;;;21.90;53.50;;;;;;4735213;55;21079;-29
2021/10/08 10:26:56;;;;;;;124.40;95.87;;;21.80;53.10;;;;;;4739600;55;21470;-28
2021/10/08 10:31:57;;;;;;;120.95;98.45;;;21.90;53.70;;;;;;4769695;55;21098;-27
2021/10/08 10:36:58;;;;;;;126.68;100.10;;;21.90;54.00;;;;;;4758542;55;21697;-27
2021/10/08 10:42:17;;;;;;;128.52;103.60;;;21.90;54.10;;;;;;4774924;55;21082;-24
2021/10/08 10:47:34;;;;;;;133.75;104.78;;;22.00;54.30;;;;;;4735650;59;21034;-26
2021/10/08 10:52:53;;;;;;;128.68;101.00;;;22.00;54.50;;;;;;4735377;59;21507;-29
2021/10/08 10:57:56;;;;;;;122.70;96.87;;;22.10;54.80;;;;;;4745559;55;21475;-27
2021/10/08 11:03:07;;;;;;;125.53;96.78;;;22.10;55.10;;;;;;4767434;55;21596;-27
2021/10/08 11:08:17;;;;;;;121.55;94.00;;;22.10;55.30;;;;;;4746894;55;21109;-27
2021/10/08 11:13:51;;;;;;;121.32;94.47;;;22.20;55.60;;;;;;4737562;55;21049;-26
2021/10/08 11:18:53;;;;;;;113.65;89.72;;;22.20;55.70;;;;;;4748559;55;21038;-28
2021/10/08 11:23:59;;;;;;;110.35;88.20;;;22.30;55.90;;;;;;4743410;55;21050;-23
2021/10/08 11:29:00;;;;;;;107.28;86.72;;;22.30;56.10;;;;;;4752946;55;21074;-27
2021/10/08 11:34:13;;;;;;;106.53;84.95;;;22.30;56.20;;;;;;4741398;55;21215;-27
2021/10/08 11:39:17;;;;;;;103.93;84.45;;;22.40;56.40;;;;;;4750964;55;21508;-21
2021/10/08 11:44:20;;;;;;;102.30;81.85;;;22.40;56.60;;;;;;4743609;55;21034;-26
2021/10/08 11:49:48;;;;;;;103.18;82.45;;;22.40;56.70;;;;;;4747527;55;21642;-26
2021/10/08 11:55:03;;;;;;;94.35;79.15;;;22.40;56.90;;;;;;4760787;55;21543;-27
2021/10/08 12:00:05;;;;;;;99.28;80.87;;;22.50;57.00;;;;;;4736870;59;21229;-27
2021/10/08 12:05:08;;;;;;;97.78;77.75;;;22.50;57.70;;;;;;4736867;55;21010;-26
2021/10/08 12:10:13;;;;;;;96.68;75.55;;;22.50;57.00;;;;;;4771194;55;22430;-25
2021/10/08 12:15:28;;;;;;;91.10;73.60;;;22.50;57.10;;;;;;4751036;55;21038;-26
2021/10/08 12:20:31;;;;;;;95.70;77.57;;;22.50;57.00;;;;;;4754623;55;21079;-26
2021/10/08 12:25:32;;;;;;;92.05;71.90;;;22.50;57.10;;;;;;4745302;55;21054;-27
2021/10/08 12:30:33;;;;;;;90.45;72.47;;;22.50;57.10;;;;;;4753960;55;21172;-29
2021/10/08 12:35:34;;;;;;;88.90;71.87;;;22.50;57.20;;;;;;4761251;55;21034;-27
2021/10/08 12:40:41;;;;;;;88.00;72.93;;;22.50;57.30;;;;;;4739403;55;21061;-27
2021/10/08 12:45:45;;;;;;;85.10;70.35;;;22.50;57.40;;;;;;4737475;59;21471;-27
2021/10/08 12:50:46;;;;;;;83.87;68.85;;;22.60;57.60;;;;;;4753260;55;21542;-27
2021/10/08 12:55:49;;;;;;;88.57;70.80;;;22.50;57.60;;;;;;4747648;55;21550;-27
2021/10/08 13:00:52;;;;;;;83.10;67.97;;;22.60;57.80;;;;;;4752140;55;21057;-28
2021/10/08 13:05:54;;;;;;;82.53;68.28;;;22.60;57.90;;;;;;4736245;59;21085;-28
2021/10/08 13:11:13;;;;;;;85.03;67.62;;;22.60;58.00;;;;;;4737700;55;21562;-26
2021/10/08 13:16:25;;;;;;;93.12;64.47;;;22.60;58.20;;;;;;4746024;55;22269;-26
2021/10/08 13:21:27;;;;;;;97.60;66.62;;;22.60;58.70;;;;;;4736258;59;21034;-27
2021/10/08 13:26:28;;;;;;;90.55;66.03;;;22.60;58.70;;;;;;4743553;55;20994;-27
2021/10/08 13:31:29;;;;;;;84.93;66.28;;;22.60;58.70;;;;;;4762466;55;21499;-27
2021/10/08 13:36:30;;;;;;;88.95;65.47;;;22.60;58.80;;;;;;4775232;55;21010;-27
2021/10/08 13:41:31;;;;;;;85.68;63.85;;;22.60;58.90;;;;;;4743380;55;21223;-23
2021/10/08 13:46:32;;;;;;;90.97;65.22;;;22.60;58.80;;;;;;4743228;55;21025;-22
2021/10/08 13:51:33;;;;;;;84.62;64.93;;;22.60;58.90;;;;;;4736029;59;21116;-27
2021/10/08 13:56:34;;;;;;;83.05;61.67;;;22.50;58.80;;;;;;4737420;55;21109;-27
2021/10/08 14:01:41;;;;;;;78.55;61.75;;;22.50;58.70;;;;;;4743484;55;21022;-24
2021/10/08 14:13:35;;;;;;;82.70;62.97;;;22.40;58.70;;;;;;4737196;59;21105;-24
2021/10/08 14:18:36;;;;;;;78.97;61.25;;;22.30;58.70;;;;;;4748047;55;21611;-28
2021/10/08 14:23:38;;;;;;;79.15;62.90;;;22.30;58.60;;;;;;4744145;55;21499;-23
2021/10/08 14:28:39;;;;;;;74.25;59.50;;;22.30;58.60;;;;;;4758733;55;21544;-26
2021/10/08 14:33:39;;;;;;;76.15;60.03;;;22.30;58.50;;;;;;4737840;55;21003;-26
2021/10/08 14:38:40;;;;;;;80.93;60.50;;;22.30;58.60;;;;;;4743706;55;21134;-24
2021/10/08 14:43:41;;;;;;;75.45;58.72;;;22.20;58.40;;;;;;4773852;55;21037;-26
2021/10/08 14:48:42;;;;;;;78.10;59.88;;;22.20;58.40;;;;;;4738521;55;21014;-27
2021/10/08 14:53:45;;;;;;;75.12;60.80;;;22.20;58.30;;;;;;4747807;55;21030;-26
2021/10/08 14:58:46;;;;;;;76.93;61.40;;;22.20;58.30;;;;;;4745815;55;21684;-24
2021/10/08 15:03:47;;;;;;;76.05;60.58;;;22.10;58.20;;;;;;4767191;55;21018;-21
2021/10/08 15:08:47;;;;;;;75.75;59.58;;;22.10;58.30;;;;;;4736691;59;21570;-25
2021/10/08 15:13:48;;;;;;;76.03;58.72;;;22.10;58.10;;;;;;4745553;55;21077;-24
2021/10/08 15:18:49;;;;;;;77.62;60.03;;;22.10;58.10;;;;;;4737340;55;21002;-26
2021/10/08 15:23:50;;;;;;;76.22;60.38;;;22.10;58.20;;;;;;4768277;55;21005;-24
2021/10/08 15:28:51;;;;;;;72.25;58.50;;;22.10;58.10;;;;;;4747687;55;21495;-25
2021/10/08 15:33:52;;;;;;;73.80;58.53;;;22.00;58.00;;;;;;4765948;55;21492;-27
2021/10/08 15:38:52;;;;;;;68.55;57.08;;;22.10;58.00;;;;;;4736305;59;21057;-27
2021/10/08 15:43:53;;;;;;;75.20;59.00;;;22.00;57.90;;;;;;4745699;55;21034;-27
2021/10/08 15:48:54;;;;;;;68.45;55.10;;;22.00;58.20;;;;;;4737311;59;21002;-27
2021/10/08 15:53:55;;;;;;;66.57;54.13;;;22.00;57.90;;;;;;4750237;55;21078;-24
2021/10/08 15:58:56;;;;;;;70.57;55.08;;;22.00;57.80;;;;;;4736689;59;22170;-26
2021/10/08 16:03:57;;;;;;;74.32;57.05;;;22.00;57.80;;;;;;4780986;55;21488;-27
2021/10/08 16:08:58;;;;;;;70.40;55.85;;;22.00;57.80;;;;;;4751776;55;21483;-27
2021/10/08 16:13:59;;;;;;;68.40;55.15;;;22.00;57.70;;;;;;4738291;55;21082;-23
2021/10/08 16:19:09;;;;;;;69.65;56.03;;;22.00;57.70;;;;;;4752083;55;21432;-26
2021/10/08 16:24:10;;;;;;;64.70;54.72;;;21.90;57.60;;;;;;4754309;55;21566;-25
2021/10/08 16:29:12;;;;;;;72.47;56.92;;;21.90;57.60;;;;;;4741996;55;21069;-25
2021/10/08 16:34:13;;;;;;;70.22;54.63;;;21.90;57.60;;;;;;4739578;55;21107;-21
2021/10/08 16:39:14;;;;;;;65.95;53.78;;;21.90;57.50;;;;;;4782181;55;21093;-23
2021/10/08 16:44:15;;;;;;;65.07;53.13;;;21.90;57.50;;;;;;4762983;55;21014;-23
2021/10/08 16:49:16;;;;;;;65.62;54.58;;;21.90;57.50;;;;;;4738889;59;21463;-27
2021/10/08 16:54:25;;;;;;;66.87;54.25;;;21.90;57.50;;;;;;4757469;55;21082;-25
2021/10/08 16:59:26;;;;;;;66.15;54.17;;;21.90;57.40;;;;;;4801266;55;21578;-23
2021/10/08 17:04:27;;;;;;;66.62;54.22;;;21.90;57.40;;;;;;4774801;55;21018;-25
2021/10/08 17:09:28;;;;;;;65.68;52.85;;;21.90;57.30;;;;;;4739253;55;21563;-27
2021/10/08 17:14:30;;;;;;;63.28;53.53;;;21.90;57.30;;;;;;4750575;55;21579;-26
2021/10/08 17:19:31;;;;;;;65.07;53.60;;;21.90;57.30;;;;;;4738946;55;21436;-26
2021/10/08 17:24:35;;;;;;;67.18;53.83;;;21.90;57.20;;;;;;4737923;59;21164;-25
2021/10/08 17:29:50;;;;;;;60.55;49.72;;;21.90;57.20;;;;;;4737891;59;21002;-26
2021/10/08 17:34:51;;;;;;;66.85;52.58;;;21.90;57.80;;;;;;4754093;55;21494;-25
2021/10/08 17:39:52;;;;;;;65.43;52.20;;;21.90;57.10;;;;;;4741253;55;21042;-27
2021/10/08 17:44:53;;;;;;;60.33;50.67;;;21.90;57.10;;;;;;4737907;59;21597;-22
2021/10/08 17:49:53;;;;;;;57.75;47.67;;;21.80;57.10;;;;;;4739796;55;21562;-26
2021/10/08 17:54:54;;;;;;;61.22;51.80;;;21.80;57.00;;;;;;4775656;55;21022;-25
2021/10/08 17:59:55;;;;;;;60.28;50.00;;;21.80;57.00;;;;;;4773334;55;20998;-21
2021/10/08 18:04:56;;;;;;;57.30;48.85;;;21.80;57.30;;;;;;4738810;55;21086;-24
2021/10/08 18:09:57;;;;;;;60.72;51.35;;;21.80;56.90;;;;;;4751341;55;21054;-27
2021/10/08 18:14:57;;;;;;;60.20;49.80;;;21.80;56.90;;;;;;4736402;59;21086;-27
2021/10/08 18:19:58;;;;;;;60.50;49.75;;;21.80;56.90;;;;;;4737795;59;21524;-26
2021/10/08 18:24:59;;;;;;;60.60;50.63;;;21.80;56.90;;;;;;4737868;55;21026;-26
2021/10/08 18:30:02;;;;;;;61.00;50.70;;;21.80;56.80;;;;;;4737796;59;21037;-24
2021/10/08 18:35:03;;;;;;;61.22;49.20;;;21.80;56.90;;;;;;4778105;55;21615;-25
2021/10/08 18:40:07;;;;;;;62.20;49.75;;;21.80;56.80;;;;;;4826396;55;21049;-23
2021/10/08 18:45:10;;;;;;;59.50;48.03;;;21.80;56.80;;;;;;4745797;55;21071;-19
2021/10/08 18:50:11;;;;;;;58.55;50.08;;;21.80;56.70;;;;;;4752580;55;21025;-24
2021/10/08 18:55:12;;;;;;;60.35;48.67;;;21.80;56.70;;;;;;4736260;59;21049;-20
2021/10/08 19:00:14;;;;;;;58.70;49.08;;;21.80;56.70;;;;;;4750065;55;20982;-23
2021/10/08 19:05:15;;;;;;;57.90;46.80;;;21.80;56.70;;;;;;4765099;55;21042;-27
2021/10/08 19:11:08;;;;;;;54.60;46.15;;;21.80;56.60;;;;;;4757128;55;21065;-25
2021/10/08 19:22:40;;;;;;;51.55;44.55;;;21.80;56.60;;;;;;4737648;55;21555;-24
2021/10/08 19:27:41;;;;;;;54.83;45.80;;;21.80;56.60;;;;;;4744165;55;21093;-26
2021/10/08 19:32:43;;;;;;;52.42;43.97;;;21.70;56.50;;;;;;4767973;55;21006;-25
2021/10/08 19:37:43;;;;;;;49.95;42.92;;;21.70;56.40;;;;;;4741848;55;21049;-26
2021/10/08 19:42:47;;;;;;;54.05;43.92;;;21.70;56.40;;;;;;4737496;59;21022;-28
2021/10/08 19:47:48;;;;;;;51.25;42.92;;;21.70;56.40;;;;;;4738239;55;21563;-26
2021/10/08 19:52:49;;;;;;;50.85;42.80;;;21.70;56.40;;;;;;4737416;55;21105;-23
2021/10/08 19:57:49;;;;;;;54.30;43.85;;;21.70;56.30;;;;;;4739597;55;21049;-26
2021/10/08 20:02:53;;;;;;;48.35;40.20;;;21.70;56.30;;;;;;4738432;55;21006;-25
2021/10/08 20:18:33;;;;;;;47.35;39.80;;;21.70;56.20;;;;;;4736476;55;21880;-21
2021/10/08 20:23:34;;;;;;;48.75;40.35;;;21.70;56.20;;;;;;4763978;55;21121;-23
2021/10/08 20:28:35;;;;;;;47.05;39.08;;;21.70;56.20;;;;;;4744556;55;22048;-20
2021/10/08 20:33:36;;;;;;;46.63;39.80;;;21.70;56.10;;;;;;4758255;55;21097;-26
2021/10/08 20:38:37;;;;;;;45.42;38.40;;;21.70;56.10;;;;;;4746618;55;21808;-21
2021/10/08 20:43:38;;;;;;;46.10;38.80;;;21.70;56.10;;;;;;4738554;55;21129;-27
2021/10/08 20:48:38;;;;;;;46.90;37.63;;;21.70;56.10;;;;;;4750137;55;21082;-27
2021/10/08 20:53:39;;;;;;;46.28;38.15;;;21.70;56.00;;;;;;4737688;55;22127;-23
2021/10/08 20:58:40;;;;;;;41.17;36.15;;;21.70;55.90;;;;;;4739166;55;21086;-24
2021/10/08 21:03:41;;;;;;;43.42;35.90;;;21.60;55.80;;;;;;4757269;55;21532;-25
2021/10/08 21:08:42;;;;;;;42.25;34.88;;;21.60;55.80;;;;;;4737509;55;21030;-26
2021/10/08 21:13:43;;;;;;;42.62;35.88;;;21.60;55.80;;;;;;4740666;55;21065;-23
2021/10/08 21:18:44;;;;;;;44.78;36.75;;;21.60;55.70;;;;;;4783526;55;21022;-18
2021/10/08 21:23:48;;;;;;;40.12;33.95;;;21.60;55.70;;;;;;4750106;55;21002;-24
2021/10/08 21:28:51;;;;;;;39.58;34.17;;;21.60;55.70;;;;;;4754052;55;21670;-25
2021/10/08 21:33:53;;;;;;;39.20;34.60;;;21.60;55.70;;;;;;4737414;59;21499;-24
2021/10/08 21:39:11;;;;;;;38.72;33.00;;;21.60;55.60;;;;;;4739143;55;21565;-26
2021/10/08 21:44:13;;;;;;;39.47;33.13;;;21.60;55.60;;;;;;4745194;55;22224;-24
2021/10/08 21:49:13;;;;;;;38.20;31.80;;;21.60;55.60;;;;;;4756551;55;21054;-20
2021/10/08 21:54:14;;;;;;;37.80;31.70;;;21.60;56.20;;;;;;4743142;55;22109;-19
2021/10/08 21:59:15;;;;;;;36.08;31.77;;;21.60;55.50;;;;;;4737955;59;21081;-23
2021/10/08 22:04:17;;;;;;;34.85;30.27;;;21.60;55.50;;;;;;4737992;56;21515;-22
2021/10/08 22:09:18;;;;;;;35.53;29.33;;;21.60;55.40;;;;;;4748079;55;21105;-20
2021/10/08 22:14:19;;;;;;;34.97;29.58;;;21.60;55.40;;;;;;4738028;56;21472;-26
2021/10/08 22:19:22;;;;;;;37.33;30.77;;;21.60;55.40;;;;;;4737159;55;21078;-23
2021/10/08 22:24:37;;;;;;;32.13;27.92;;;21.50;55.20;;;;;;4743579;55;21536;-24
2021/10/08 22:34:49;;;;;;;34.17;29.60;;;21.60;55.30;;;;;;4736809;55;21030;-25
2021/10/08 22:39:50;;;;;;;33.92;28.73;;;21.60;55.20;;;;;;4744422;55;21496;-19
2021/10/08 22:44:55;;;;;;;30.35;26.90;;;21.60;55.20;;;;;;4753968;55;21026;-20
2021/10/08 22:49:56;;;;;;;30.98;27.15;;;21.50;55.20;;;;;;4746350;55;21579;-23
2021/10/08 22:54:57;;;;;;;33.08;27.77;;;21.50;55.10;;;;;;4759721;55;21021;-25
2021/10/08 22:59:58;;;;;;;31.10;27.08;;;21.50;55.10;;;;;;4765211;55;20991;-27
2021/10/08 23:05:00;;;;;;;29.08;25.92;;;21.50;55.00;;;;;;4763207;55;21057;-25
2021/10/08 23:10:08;;;;;;;29.00;25.90;;;21.50;55.10;;;;;;4738286;55;21495;-22
2021/10/08 23:15:22;;;;;;;32.03;26.65;;;21.50;55.00;;;;;;4739481;55;21005;-25
2021/10/08 23:20:23;;;;;;;29.27;25.37;;;21.50;55.00;;;;;;4744562;55;21086;-25
2021/10/08 23:25:24;;;;;;;28.27;25.17;;;21.50;55.00;;;;;;4744226;55;21081;-23
2021/10/08 23:30:25;;;;;;;29.23;25.48;;;21.50;55.00;;;;;;4746399;55;21065;-24
2021/10/08 23:35:26;;;;;;;28.73;24.73;;;21.50;55.00;;;;;;4739801;55;21084;-23
2021/10/08 23:40:26;;;;;;;28.80;24.55;;;21.50;54.80;;;;;;4758990;55;21089;-24
2021/10/08 23:45:27;;;;;;;27.15;23.90;;;21.50;54.80;;;;;;4742173;55;21002;-24
2021/10/08 23:50:28;;;;;;;25.73;22.70;;;21.50;54.80;;;;;;4766253;55;21118;-23
2021/10/08 23:55:29;;;;;;;26.25;23.33;;;21.50;54.80;;;;;;4745344;55;21082;-25
